Station Historical Data
Daily Summary for February 28, 2017 Units:  English    Metric   Both
« Previous Day
Next Day »
Daily Weekly Monthly Yearly Custom
  High: Low: Average:
Temperature: 59.5 °F 33.1 °F 48.4 °F
Dew Point: 50.3 °F 26.4 °F 37.5 °F
Humidity: 83% 48% 67%
Wind Speed: 14.0mph 0.0mph 3.1mph
Wind Gust: 18.0mph - -
Wind- - South
Pressure: 30.30 in 29.72 in -
Precipitation: 0.00 in    
Historical Graphs
 
 
Tabular Data for February 28, 2017
Time Temperature Dew Point Pressure Wind Wind Speed Wind Gust Humidity Rainfall Rate (Hourly)
00:04 35.5 °F 27.0 °F 30.29 in Calm     71% 0.00 in
00:09 35.6 °F 27.1 °F 30.29 in Calm     71% 0.00 in
00:14 35.4 °F 27.3 °F 30.29 in South 2.0 mph 5.0 mph 72% 0.00 in
00:19 35.4 °F 27.3 °F 30.29 in SSE 1.0 mph 5.0 mph 72% 0.00 in
00:24 35.3 °F 27.2 °F 30.30 in Calm   2.0 mph 72% 0.00 in
00:29 35.1 °F 27.0 °F 30.30 in Calm   1.0 mph 72% 0.00 in
00:34 35.2 °F 27.1 °F 30.30 in Calm     72% 0.00 in
00:39 35.1 °F 27.0 °F 30.30 in Calm     72% 0.00 in
00:44 35.0 °F 26.9 °F 30.30 in Calm     72% 0.00 in
00:49 35.0 °F 27.2 °F 30.30 in Calm     73% 0.00 in
00:54 35.0 °F 27.2 °F 30.30 in Calm   2.0 mph 73% 0.00 in
00:59 34.8 °F 27.0 °F 30.30 in Calm   2.0 mph 73% 0.00 in
01:04 34.6 °F 26.8 °F 30.30 in Calm     73% 0.00 in
01:09 34.3 °F 26.9 °F 30.30 in ESE 1.0 mph 3.0 mph 74% 0.00 in
01:14 34.3 °F 26.9 °F 30.30 in Calm   2.0 mph 74% 0.00 in
01:19 34.0 °F 26.6 °F 30.30 in Calm   2.0 mph 74% 0.00 in
01:24 33.9 °F 26.8 °F 30.30 in Calm     75% 0.00 in
01:29 34.0 °F 26.9 °F 30.30 in Calm     75% 0.00 in
01:34 34.1 °F 27.0 °F 30.30 in Calm     75% 0.00 in
01:39 34.1 °F 27.0 °F 30.30 in Calm     75% 0.00 in
01:44 34.1 °F 27.0 °F 30.30 in Calm     75% 0.00 in
01:49 33.9 °F 26.8 °F 30.30 in Calm     75% 0.00 in
01:54 33.8 °F 26.7 °F 30.30 in Calm     75% 0.00 in
01:59 33.5 °F 26.4 °F 30.30 in Calm     75% 0.00 in
02:04 33.5 °F 26.7 °F 30.30 in Calm     76% 0.00 in
02:09 33.6 °F 26.8 °F 30.29 in Calm     76% 0.00 in
02:14 33.8 °F 27.0 °F 30.29 in Calm   1.0 mph 76% 0.00 in
02:19 33.9 °F 27.1 °F 30.29 in Calm   1.0 mph 76% 0.00 in
02:24 33.9 °F 26.8 °F 30.29 in Calm     75% 0.00 in
02:29 33.8 °F 27.0 °F 30.29 in Calm     76% 0.00 in
02:34 33.9 °F 27.1 °F 30.29 in Calm   1.0 mph 76% 0.00 in
02:39 34.0 °F 27.2 °F 30.29 in Calm   1.0 mph 76% 0.00 in
02:44 34.1 °F 27.0 °F 30.29 in Calm   2.0 mph 75% 0.00 in
02:49 34.1 °F 27.0 °F 30.29 in Calm   2.0 mph 75% 0.00 in
02:54 33.9 °F 26.8 °F 30.29 in Calm   2.0 mph 75% 0.00 in
02:59 33.7 °F 26.9 °F 30.29 in Calm   1.0 mph 76% 0.00 in
03:04 33.7 °F 26.9 °F 30.29 in Calm   2.0 mph 76% 0.00 in
03:09 33.5 °F 26.7 °F 30.29 in Calm   2.0 mph 76% 0.00 in
03:14 33.2 °F 26.8 °F 30.29 in Calm     77% 0.00 in
03:19 33.2 °F 26.8 °F 30.29 in Calm     77% 0.00 in
03:24 33.3 °F 26.9 °F 30.29 in Calm   1.0 mph 77% 0.00 in
03:29 33.4 °F 27.0 °F 30.29 in Calm     77% 0.00 in
03:34 33.3 °F 26.9 °F 30.29 in Calm     77% 0.00 in
03:39 33.1 °F 27.0 °F 30.28 in Calm     78% 0.00 in
03:44 33.2 °F 27.1 °F 30.28 in Calm     78% 0.00 in
03:49 33.3 °F 27.2 °F 30.28 in Calm     78% 0.00 in
03:54 33.6 °F 27.5 °F 30.28 in Calm     78% 0.00 in
03:59 33.8 °F 27.7 °F 30.28 in Calm     78% 0.00 in
04:04 33.8 °F 27.7 °F 30.28 in Calm     78% 0.00 in
04:09 33.8 °F 27.7 °F 30.28 in Calm     78% 0.00 in
04:14 33.9 °F 27.8 °F 30.28 in Calm     78% 0.00 in
04:19 34.0 °F 27.9 °F 30.28 in Calm     78% 0.00 in
04:24 34.1 °F 28.3 °F 30.28 in Calm     79% 0.00 in
04:29 34.5 °F 28.3 °F 30.27 in Calm     78% 0.00 in
04:34 35.0 °F 28.8 °F 30.27 in Calm     78% 0.00 in
04:39 35.5 °F 29.0 °F 30.27 in Calm     77% 0.00 in
04:44 35.5 °F 29.0 °F 30.27 in Calm     77% 0.00 in
04:49 35.5 °F 29.0 °F 30.27 in Calm     77% 0.00 in
04:54 35.7 °F 28.9 °F 30.26 in Calm     76% 0.00 in
04:59 35.7 °F 28.9 °F 30.27 in Calm     76% 0.00 in
05:04 35.6 °F 28.8 °F 30.26 in Calm     76% 0.00 in
05:09 35.6 °F 29.1 °F 30.26 in Calm     77% 0.00 in
05:14 35.4 °F 28.9 °F 30.26 in Calm     77% 0.00 in
05:19 35.5 °F 29.0 °F 30.26 in Calm     77% 0.00 in
05:24 35.7 °F 29.2 °F 30.26 in Calm     77% 0.00 in
05:29 35.9 °F 29.4 °F 30.26 in Calm     77% 0.00 in
05:34 35.9 °F 29.4 °F 30.26 in Calm     77% 0.00 in
05:39 35.8 °F 29.3 °F 30.26 in Calm     77% 0.00 in
05:44 35.8 °F 29.3 °F 30.26 in Calm     77% 0.00 in
05:49 36.0 °F 29.8 °F 30.26 in Calm     78% 0.00 in
05:54 36.1 °F 29.9 °F 30.26 in Calm   1.0 mph 78% 0.00 in
05:59 35.9 °F 29.7 °F 30.26 in Calm   2.0 mph 78% 0.00 in
06:04 35.8 °F 29.6 °F 30.26 in Calm   2.0 mph 78% 0.00 in
06:09 35.8 °F 29.9 °F 30.26 in ESE 1.0 mph 3.0 mph 79% 0.00 in
06:14 35.9 °F 30.0 °F 30.26 in SE 1.0 mph 3.0 mph 79% 0.00 in
06:19 35.9 °F 30.0 °F 30.26 in SE 1.0 mph 3.0 mph 79% 0.00 in
06:24 36.1 °F 30.2 °F 30.25 in Calm   2.0 mph 79% 0.00 in
06:29 36.1 °F 30.5 °F 30.25 in SE 1.0 mph 3.0 mph 80% 0.00 in
06:34 36.1 °F 30.5 °F 30.25 in Calm   3.0 mph 80% 0.00 in
06:39 36.3 °F 30.7 °F 30.25 in Calm   2.0 mph 80% 0.00 in
06:44 36.3 °F 30.7 °F 30.25 in Calm     80% 0.00 in
06:49 36.2 °F 30.6 °F 30.24 in Calm     80% 0.00 in
06:54 36.2 °F 30.9 °F 30.24 in Calm     81% 0.00 in
06:59 36.1 °F 30.8 °F 30.24 in Calm     81% 0.00 in
07:04 36.1 °F 31.1 °F 30.24 in Calm   3.0 mph 82% 0.00 in
07:09 36.2 °F 31.2 °F 30.24 in ESE 1.0 mph 3.0 mph 82% 0.00 in
07:14 36.4 °F 31.4 °F 30.24 in ESE 1.0 mph 2.0 mph 82% 0.00 in
07:19 36.5 °F 31.5 °F 30.24 in ESE 1.0 mph 3.0 mph 82% 0.00 in
07:24 36.6 °F 31.9 °F 30.23 in ESE 1.0 mph 3.0 mph 83% 0.00 in
07:29 36.8 °F 32.1 °F 30.23 in SE 1.0 mph 3.0 mph 83% 0.00 in
07:34 37.0 °F 32.3 °F 30.23 in ESE 1.0 mph 3.0 mph 83% 0.00 in
07:39 37.2 °F 32.5 °F 30.23 in SSE 1.0 mph 4.0 mph 83% 0.00 in
07:44 37.4 °F 32.7 °F 30.23 in SSE 1.0 mph 3.0 mph 83% 0.00 in
07:49 37.7 °F 33.0 °F 30.24 in SE 1.0 mph 3.0 mph 83% 0.00 in
07:54 37.9 °F 33.2 °F 30.23 in SE 2.0 mph 4.0 mph 83% 0.00 in
07:59 38.0 °F 33.3 °F 30.23 in ESE 1.0 mph 4.0 mph 83% 0.00 in
08:04 38.3 °F 33.6 °F 30.23 in ESE 1.0 mph 4.0 mph 83% 0.00 in
08:09 38.6 °F 33.9 °F 30.23 in SE 1.0 mph 3.0 mph 83% 0.00 in
08:14 38.8 °F 34.1 °F 30.23 in SE 1.0 mph 3.0 mph 83% 0.00 in
08:19 39.0 °F 34.3 °F 30.24 in Calm   4.0 mph 83% 0.00 in
08:24 39.3 °F 34.6 °F 30.24 in SSE 1.0 mph 4.0 mph 83% 0.00 in
08:29 39.7 °F 35.0 °F 30.23 in SSE 2.0 mph 4.0 mph 83% 0.00 in
08:34 40.0 °F 34.9 °F 30.23 in SSE 2.0 mph 5.0 mph 82% 0.00 in
08:39 40.2 °F 35.1 °F 30.23 in SE 4.0 mph 5.0 mph 82% 0.00 in
08:44 40.6 °F 35.5 °F 30.23 in SSE 2.0 mph 7.0 mph 82% 0.00 in
08:49 40.9 °F 35.5 °F 30.22 in SE 4.0 mph 5.0 mph 81% 0.00 in
08:54 41.0 °F 35.6 °F 30.22 in SE 2.0 mph 5.0 mph 81% 0.00 in
08:59 41.3 °F 35.9 °F 30.22 in ESE 3.0 mph 4.0 mph 81% 0.00 in
09:04 41.6 °F 36.2 °F 30.22 in SSE 1.0 mph 4.0 mph 81% 0.00 in
09:09 41.9 °F 36.5 °F 30.22 in SSE 2.0 mph 7.0 mph 81% 0.00 in
09:14 42.0 °F 36.3 °F 30.22 in SE 2.0 mph 7.0 mph 80% 0.00 in
09:19 42.2 °F 36.5 °F 30.22 in SSE 2.0 mph 5.0 mph 80% 0.00 in
09:24 42.7 °F 37.0 °F 30.22 in SSE 2.0 mph 5.0 mph 80% 0.00 in
09:29 42.8 °F 37.1 °F 30.22 in SSE 4.0 mph 6.0 mph 80% 0.00 in
09:34 43.0 °F 36.9 °F 30.21 in South 3.0 mph 5.0 mph 79% 0.00 in
09:39 43.1 °F 37.0 °F 30.21 in SE 2.0 mph 5.0 mph 79% 0.00 in
09:44 43.3 °F 37.2 °F 30.20 in SSE 3.0 mph 5.0 mph 79% 0.00 in
09:49 43.5 °F 37.4 °F 30.20 in SSE 2.0 mph 6.0 mph 79% 0.00 in
09:54 43.8 °F 37.4 °F 30.21 in SSE 2.0 mph 4.0 mph 78% 0.00 in
09:59 44.2 °F 37.8 °F 30.20 in SE 1.0 mph 3.0 mph 78% 0.00 in
10:04 44.4 °F 38.0 °F 30.20 in SSE 3.0 mph 5.0 mph 78% 0.00 in
10:09 44.6 °F 37.8 °F 30.20 in SSW 2.0 mph 4.0 mph 77% 0.00 in
10:14 44.8 °F 38.0 °F 30.19 in SSE 3.0 mph 4.0 mph 77% 0.00 in
10:19 45.2 °F 38.1 °F 30.19 in SSE 2.0 mph 4.0 mph 76% 0.00 in
10:24 45.4 °F 38.3 °F 30.19 in SSE 2.0 mph 4.0 mph 76% 0.00 in
10:29 45.9 °F 38.8 °F 30.19 in SSE 2.0 mph 4.0 mph 76% 0.00 in
10:34 46.5 °F 39.0 °F 30.18 in SE 2.0 mph 5.0 mph 75% 0.00 in
10:39 46.9 °F 39.0 °F 30.16 in ESE 2.0 mph 4.0 mph 74% 0.00 in
10:44 47.4 °F 39.2 °F 30.15 in South 2.0 mph 6.0 mph 73% 0.00 in
10:49 48.1 °F 39.1 °F 30.13 in ESE 3.0 mph 6.0 mph 71% 0.00 in
10:54 48.7 °F 39.7 °F 30.13 in ESE 3.0 mph 7.0 mph 71% 0.00 in
10:59 49.4 °F 40.0 °F 30.12 in ESE 2.0 mph 7.0 mph 70% 0.00 in
11:04 49.9 °F 40.1 °F 30.12 in SSE 1.0 mph 6.0 mph 69% 0.00 in
11:09 50.4 °F 40.2 °F 30.11 in SE 4.0 mph 5.0 mph 68% 0.00 in
11:14 50.9 °F 39.9 °F 30.12 in South 4.0 mph 7.0 mph 66% 0.00 in
11:19 52.2 °F 40.4 °F 30.11 in SSE 4.0 mph 8.0 mph 64% 0.00 in
11:24 52.5 °F 40.7 °F 30.11 in SE 4.0 mph 8.0 mph 64% 0.00 in
11:29 53.3 °F 40.6 °F 30.11 in SSE 3.0 mph 7.0 mph 62% 0.00 in
11:34 54.6 °F 41.0 °F 30.12 in South 3.0 mph 7.0 mph 60% 0.00 in
11:39 54.7 °F 40.2 °F 30.12 in SSE 4.0 mph 9.0 mph 58% 0.00 in
11:44 56.0 °F 40.5 °F 30.12 in SSW 4.0 mph 7.0 mph 56% 0.00 in
11:49 55.6 °F 39.7 °F 30.11 in SSW 7.0 mph 10.0 mph 55% 0.00 in
11:54 55.4 °F 40.0 °F 30.11 in South 6.0 mph 11.0 mph 56% 0.00 in
11:59 55.4 °F 40.0 °F 30.11 in South 5.0 mph 11.0 mph 56% 0.00 in
12:04 56.1 °F 40.6 °F 30.11 in SSW 4.0 mph 12.0 mph 56% 0.00 in
12:09 56.0 °F 40.1 °F 30.10 in SSE 4.0 mph 9.0 mph 55% 0.00 in
12:14 57.0 °F 40.5 °F 30.10 in SW 6.0 mph 9.0 mph 54% 0.00 in
12:19 57.8 °F 41.3 °F 30.10 in South 10.0 mph 12.0 mph 54% 0.00 in
12:24 57.7 °F 40.7 °F 30.09 in SSW 6.0 mph 12.0 mph 53% 0.00 in
12:29 58.0 °F 41.4 °F 30.09 in SSW 6.0 mph 11.0 mph 54% 0.00 in
12:34 57.6 °F 40.6 °F 30.08 in SSW 4.0 mph 12.0 mph 53% 0.00 in
12:39 57.7 °F 40.7 °F 30.08 in South 3.0 mph 10.0 mph 53% 0.00 in
12:44 57.8 °F 40.8 °F 30.07 in SW 7.0 mph 11.0 mph 53% 0.00 in
12:49 57.9 °F 40.9 °F 30.07 in SSE 2.0 mph 10.0 mph 53% 0.00 in
12:54 57.9 °F 40.9 °F 30.07 in SSW 7.0 mph 11.0 mph 53% 0.00 in
12:59 58.0 °F 41.0 °F 30.06 in SSW 6.0 mph 11.0 mph 53% 0.00 in
13:04 57.8 °F 40.8 °F 30.05 in SSW 5.0 mph 13.0 mph 53% 0.00 in
13:09 58.2 °F 41.1 °F 30.05 in SSW 5.0 mph 13.0 mph 53% 0.00 in
13:14 58.4 °F 40.8 °F 30.05 in South 5.0 mph 10.0 mph 52% 0.00 in
13:19 58.7 °F 41.6 °F 30.04 in South 5.0 mph 9.0 mph 53% 0.00 in
13:24 59.1 °F 41.5 °F 30.03 in South 4.0 mph 9.0 mph 52% 0.00 in
13:29 59.3 °F 41.2 °F 30.03 in SSW 7.0 mph 11.0 mph 51% 0.00 in
13:34 59.5 °F 41.3 °F 30.03 in WSW 3.0 mph 11.0 mph 51% 0.00 in
13:39 59.2 °F 40.6 °F 30.02 in SSW 7.0 mph 13.0 mph 50% 0.00 in
13:44 58.9 °F 40.8 °F 30.01 in SSE 3.0 mph 10.0 mph 51% 0.00 in
13:49 58.9 °F 40.8 °F 30.01 in WSW 5.0 mph 17.0 mph 51% 0.00 in
13:54 59.1 °F 41.0 °F 30.01 in South 3.0 mph 12.0 mph 51% 0.00 in
13:59 59.3 °F 41.2 °F 30.00 in South 6.0 mph 14.0 mph 51% 0.00 in
14:04 59.1 °F 40.5 °F 30.00 in South 7.0 mph 14.0 mph 50% 0.00 in
14:09 58.8 °F 40.2 °F 30.00 in South 8.0 mph 15.0 mph 50% 0.00 in
14:14 58.5 °F 39.9 °F 29.99 in South 7.0 mph 15.0 mph 50% 0.00 in
14:19 58.4 °F 40.3 °F 29.98 in South 6.0 mph 12.0 mph 51% 0.00 in
14:24 58.4 °F 40.3 °F 29.98 in South 6.0 mph 10.0 mph 51% 0.00 in
14:29 58.5 °F 39.9 °F 29.98 in South 5.0 mph 12.0 mph 50% 0.00 in
14:34 58.4 °F 39.8 °F 29.98 in South 6.0 mph 12.0 mph 50% 0.00 in
14:39 58.4 °F 39.8 °F 29.98 in South 5.0 mph 9.0 mph 50% 0.00 in
14:44 58.3 °F 39.7 °F 29.98 in SSE 4.0 mph 7.0 mph 50% 0.00 in
14:49 58.3 °F 39.2 °F 29.98 in South 3.0 mph 9.0 mph 49% 0.00 in
14:54 58.4 °F 39.3 °F 29.97 in SSE 10.0 mph 10.0 mph 49% 0.00 in
14:59 58.5 °F 39.4 °F 29.97 in South 7.0 mph 11.0 mph 49% 0.00 in
15:04 58.6 °F 39.0 °F 29.97 in South 3.0 mph 8.0 mph 48% 0.00 in
15:09 58.5 °F 38.9 °F 29.96 in South 5.0 mph 10.0 mph 48% 0.00 in
15:14 58.4 °F 39.3 °F 29.96 in South 5.0 mph 10.0 mph 49% 0.00 in
15:19 58.5 °F 39.4 °F 29.95 in South 4.0 mph 9.0 mph 49% 0.00 in
15:24 58.5 °F 39.4 °F 29.95 in South 5.0 mph 9.0 mph 49% 0.00 in
15:29 58.4 °F 39.3 °F 29.95 in South 4.0 mph 9.0 mph 49% 0.00 in
15:34 58.4 °F 39.3 °F 29.94 in SSE 4.0 mph 6.0 mph 49% 0.00 in
15:39 58.5 °F 39.4 °F 29.94 in South 3.0 mph 7.0 mph 49% 0.00 in
15:44 58.5 °F 39.4 °F 29.94 in SSE 2.0 mph 6.0 mph 49% 0.00 in
15:49 58.5 °F 39.9 °F 29.93 in SE 3.0 mph 5.0 mph 50% 0.00 in
15:54 58.5 °F 39.4 °F 29.93 in SSE 3.0 mph 4.0 mph 49% 0.00 in
15:59 58.5 °F 39.4 °F 29.92 in SSE 2.0 mph 6.0 mph 49% 0.00 in
16:04 58.4 °F 39.8 °F 29.92 in South 3.0 mph 6.0 mph 50% 0.00 in
16:09 58.3 °F 39.7 °F 29.92 in SSE 1.0 mph 6.0 mph 50% 0.00 in
16:14 58.4 °F 39.8 °F 29.92 in SSE 2.0 mph 6.0 mph 50% 0.00 in
16:19 58.4 °F 39.3 °F 29.92 in SSE 2.0 mph 4.0 mph 49% 0.00 in
16:24 58.4 °F 39.3 °F 29.92 in SSE 2.0 mph 5.0 mph 49% 0.00 in
16:29 58.4 °F 39.3 °F 29.92 in SSE 2.0 mph 5.0 mph 49% 0.00 in
16:34 58.4 °F 39.8 °F 29.91 in SSE 2.0 mph 5.0 mph 50% 0.00 in
16:39 58.4 °F 39.3 °F 29.91 in SE 2.0 mph 5.0 mph 49% 0.00 in
16:44 58.2 °F 39.6 °F 29.91 in South 1.0 mph 3.0 mph 50% 0.00 in
16:49 58.3 °F 39.2 °F 29.91 in SE 2.0 mph 4.0 mph 49% 0.00 in
16:54 58.4 °F 39.3 °F 29.91 in South 1.0 mph 3.0 mph 49% 0.00 in
16:59 58.4 °F 39.3 °F 29.91 in SE 5.0 mph 7.0 mph 49% 0.00 in
17:04 58.5 °F 39.4 °F 29.91 in SSE 2.0 mph 5.0 mph 49% 0.00 in
17:09 58.4 °F 39.3 °F 29.91 in SSW 1.0 mph 6.0 mph 49% 0.00 in
17:14 58.4 °F 39.8 °F 29.90 in SSE 1.0 mph 5.0 mph 50% 0.00 in
17:19 58.3 °F 39.7 °F 29.90 in South 3.0 mph 6.0 mph 50% 0.00 in
17:24 58.1 °F 39.5 °F 29.90 in South 3.0 mph 6.0 mph 50% 0.00 in
17:29 58.1 °F 40.1 °F 29.90 in South 3.0 mph 7.0 mph 51% 0.00 in
17:34 58.2 °F 40.1 °F 29.89 in SSW 3.0 mph 7.0 mph 51% 0.00 in
17:39 58.1 °F 40.6 °F 29.90 in SSW 2.0 mph 7.0 mph 52% 0.00 in
17:44 58.5 °F 40.9 °F 29.89 in SSW 4.0 mph 9.0 mph 52% 0.00 in
17:49 58.7 °F 41.1 °F 29.89 in SSW 5.0 mph 10.0 mph 52% 0.00 in
17:54 58.6 °F 41.5 °F 29.89 in SSW 4.0 mph 7.0 mph 53% 0.00 in
17:59 58.6 °F 41.5 °F 29.89 in SSW 2.0 mph 9.0 mph 53% 0.00 in
18:04 58.6 °F 42.0 °F 29.89 in SW 3.0 mph 7.0 mph 54% 0.00 in
18:09 58.6 °F 42.0 °F 29.89 in SW 4.0 mph 8.0 mph 54% 0.00 in
18:14 58.6 °F 42.5 °F 29.88 in SSW 3.0 mph 8.0 mph 55% 0.00 in
18:19 58.7 °F 42.6 °F 29.89 in SSW 5.0 mph 12.0 mph 55% 0.00 in
18:24 58.7 °F 42.6 °F 29.89 in SSW 5.0 mph 12.0 mph 55% 0.00 in
18:29 58.6 °F 42.9 °F 29.89 in SSW 4.0 mph 11.0 mph 56% 0.00 in
18:34 58.6 °F 43.4 °F 29.88 in SSW 5.0 mph 11.0 mph 57% 0.00 in
18:39 58.6 °F 43.4 °F 29.88 in SSW 5.0 mph 13.0 mph 57% 0.00 in
18:44 58.5 °F 43.8 °F 29.87 in SSW 6.0 mph 10.0 mph 58% 0.00 in
18:49 58.4 °F 44.1 °F 29.86 in SW 6.0 mph 9.0 mph 59% 0.00 in
18:54 58.5 °F 44.2 °F 29.86 in SSW 6.0 mph 12.0 mph 59% 0.00 in
18:59 58.4 °F 44.6 °F 29.86 in South 6.0 mph 12.0 mph 60% 0.00 in
19:04 58.3 °F 44.5 °F 29.85 in South 5.0 mph 10.0 mph 60% 0.00 in
19:09 58.2 °F 44.4 °F 29.85 in South 11.0 mph 14.0 mph 60% 0.00 in
19:14 58.3 °F 44.5 °F 29.85 in SSE 6.0 mph 15.0 mph 60% 0.00 in
19:19 58.3 °F 44.5 °F 29.84 in South 7.0 mph 11.0 mph 60% 0.00 in
19:24 58.2 °F 44.4 °F 29.85 in SSW 5.0 mph 11.0 mph 60% 0.00 in
19:29 58.3 °F 44.5 °F 29.85 in SSW 5.0 mph 10.0 mph 60% 0.00 in
19:34 58.4 °F 44.1 °F 29.84 in SSW 5.0 mph 10.0 mph 59% 0.00 in
19:39 58.3 °F 44.5 °F 29.84 in South 8.0 mph 9.0 mph 60% 0.00 in
19:44 58.2 °F 44.4 °F 29.83 in South 14.0 mph 14.0 mph 60% 0.00 in
19:49 58.2 °F 44.4 °F 29.83 in SSW 3.0 mph 14.0 mph 60% 0.00 in
19:54 58.2 °F 44.4 °F 29.83 in SSW 6.0 mph 13.0 mph 60% 0.00 in
19:59 58.3 °F 44.5 °F 29.83 in South 6.0 mph 13.0 mph 60% 0.00 in
20:04 58.3 °F 44.9 °F 29.83 in SSW 6.0 mph 13.0 mph 61% 0.00 in
20:09 58.4 °F 45.0 °F 29.83 in SSW 7.0 mph 12.0 mph 61% 0.00 in
20:14 58.4 °F 45.0 °F 29.83 in SW 2.0 mph 12.0 mph 61% 0.00 in
20:19 58.4 °F 45.0 °F 29.82 in SSW 6.0 mph 13.0 mph 61% 0.00 in
20:24 58.4 °F 45.4 °F 29.82 in SSW 7.0 mph 10.0 mph 62% 0.00 in
20:29 58.3 °F 45.3 °F 29.82 in SSW 6.0 mph 12.0 mph 62% 0.00 in
20:34 58.3 °F 45.3 °F 29.82 in SSW 7.0 mph 12.0 mph 62% 0.00 in
20:39 58.2 °F 45.7 °F 29.81 in SSW 7.0 mph 13.0 mph 63% 0.00 in
20:44 58.2 °F 46.1 °F 29.81 in SSW 7.0 mph 13.0 mph 64% 0.00 in
20:49 58.1 °F 46.0 °F 29.80 in SW 4.0 mph 13.0 mph 64% 0.00 in
20:54 58.0 °F 46.3 °F 29.80 in South 9.0 mph 12.0 mph 65% 0.00 in
20:59 57.8 °F 46.5 °F 29.79 in SSW 7.0 mph 13.0 mph 66% 0.00 in
21:04 57.8 °F 46.5 °F 29.79 in SSW 3.0 mph 12.0 mph 66% 0.00 in
21:09 57.8 °F 46.9 °F 29.79 in South 4.0 mph 13.0 mph 67% 0.00 in
21:14 57.9 °F 47.0 °F 29.80 in SW 3.0 mph 12.0 mph 67% 0.00 in
21:19 58.0 °F 47.1 °F 29.79 in South 8.0 mph 13.0 mph 67% 0.00 in
21:24 58.0 °F 47.5 °F 29.79 in SW 6.0 mph 13.0 mph 68% 0.00 in
21:29 58.1 °F 47.6 °F 29.79 in SSW 6.0 mph 13.0 mph 68% 0.00 in
21:34 58.1 °F 47.6 °F 29.79 in SSW 6.0 mph 14.0 mph 68% 0.00 in
21:39 58.0 °F 47.5 °F 29.79 in SSW 6.0 mph 14.0 mph 68% 0.00 in
21:44 58.0 °F 47.9 °F 29.79 in SSW 6.0 mph 15.0 mph 69% 0.00 in
21:49 57.9 °F 47.8 °F 29.78 in SSW 7.0 mph 15.0 mph 69% 0.00 in
21:54 57.9 °F 47.8 °F 29.78 in SSW 4.0 mph 15.0 mph 69% 0.00 in
21:59 57.9 °F 48.2 °F 29.78 in SSW 6.0 mph 15.0 mph 70% 0.00 in
22:04 58.0 °F 48.3 °F 29.78 in SSW 13.0 mph 16.0 mph 70% 0.00 in
22:09 58.0 °F 48.3 °F 29.77 in SSW 7.0 mph 17.0 mph 70% 0.00 in
22:14 58.0 °F 48.3 °F 29.77 in SSW 7.0 mph 15.0 mph 70% 0.00 in
22:19 57.9 °F 48.2 °F 29.77 in SW 8.0 mph 15.0 mph 70% 0.00 in
22:24 57.9 °F 48.2 °F 29.76 in SSE 5.0 mph 15.0 mph 70% 0.00 in
22:29 57.7 °F 48.4 °F 29.76 in SSE 3.0 mph 14.0 mph 71% 0.00 in
22:34 57.6 °F 48.3 °F 29.75 in SSW 6.0 mph 14.0 mph 71% 0.00 in
22:39 57.4 °F 48.4 °F 29.75 in SSW 6.0 mph 15.0 mph 72% 0.00 in
22:44 57.5 °F 48.5 °F 29.75 in SSW 6.0 mph 15.0 mph 72% 0.00 in
22:49 57.6 °F 49.0 °F 29.74 in SSW 5.0 mph 11.0 mph 73% 0.00 in
22:54 57.7 °F 49.1 °F 29.75 in SSW 6.0 mph 16.0 mph 73% 0.00 in
22:59 57.9 °F 49.3 °F 29.74 in SW 4.0 mph 11.0 mph 73% 0.00 in
23:04 57.8 °F 49.2 °F 29.73 in SSW 6.0 mph 12.0 mph 73% 0.00 in
23:09 57.8 °F 49.6 °F 29.73 in SSW 6.0 mph 12.0 mph 74% 0.00 in
23:14 57.7 °F 49.5 °F 29.73 in SW 5.0 mph 11.0 mph 74% 0.00 in
23:19 57.7 °F 49.5 °F 29.73 in SW 11.0 mph 15.0 mph 74% 0.00 in
23:24 57.8 °F 49.9 °F 29.72 in SSW 9.0 mph 15.0 mph 75% 0.00 in
23:29 57.8 °F 49.9 °F 29.72 in SSW 7.0 mph 18.0 mph 75% 0.00 in
23:34 57.9 °F 50.0 °F 29.72 in WSW 11.0 mph 15.0 mph 75% 0.00 in
23:39 57.8 °F 49.9 °F 29.72 in SSW 7.0 mph 15.0 mph 75% 0.00 in
23:44 57.7 °F 49.8 °F 29.72 in SSW 6.0 mph 14.0 mph 75% 0.00 in
23:49 57.8 °F 50.3 °F 29.72 in SSW 6.0 mph 15.0 mph 76% 0.00 in
23:54 57.8 °F 50.3 °F 29.72 in SSW 7.0 mph 15.0 mph 76% 0.00 in
23:59 57.8 °F 50.3 °F 29.72 in West 3.0 mph 14.0 mph 76% 0.00 in
Buffalo, New York, USA
Compliments of Weather Underground - 2.5 mb